Tahiti, French Polynesia

8:44 PM TAHT on August 29, 2015 (GMT -1000)
Faaa | | Change Station
CLOSE
Current Station
Airport
Location: Tahiti,
Elevation: 7 ft
Nearby Weather Stations

Elev 7 ft 17.56 °S, 149.61 °W | Updated 14 minutes ago

Mostly Cloudy
Mostly Cloudy
81 °F
Feels Like 85 °F
N
12
Wind Variable Wind from ENE

Today
High -- | Low -- °F
--% Chance of Precip.
Yesterday
High -- | Low -- °F
Precip. -- in
6:07 AM 5:51 PM
Full, 100% visible
Pressure 29.92 in
Visibility 6.2 miles
Clouds Few 2000 ft
Mostly Cloudy 6600 ft
Heat Index 85 °F
Dew Point 72 °F
Humidity 74%
Rainfall 0.00 in
Snow Depth Not available.
UV 0 out of 12
Pollen Not available.
Air Quality Not available.
Flu Activity Not available.
METAR NTAA 300630Z 07010KT 9999 FEW020 BKN066 27/22 Q1013 NOSIG
Pressure 29.92 in
Visibility 6.2 miles
Clouds Few 2000 ft
Mostly Cloudy 6600 ft
Heat Index 85 °F
Dew Point 72 °F
Humidity 74%
Rainfall 0.00 in
Snow Depth Not available.
UV 0 out of 12
Pollen Not available.
Air Quality Not available.
Flu Activity Not available.
METAR NTAA 300630Z 07010KT 9999 FEW020 BKN066 27/22 Q1013 NOSIG

10-Day Weather Forecast

×

Almanac

Astronomy

Aug. 29, 2015 Rise Set
Actual Time
Civil Twilight
Nautical Twilight
Astronomical Twilight
Moon
Length of Visible Light
Length of Day
Tomorrow will be .
, % of the Moon is Illuminated

Today's Extremes

Country Highs Country Lows

Community

WunderPhotos

Upload Photos

1,850,904 photos uploaded!

WunderBlogs® & News

Nearby

Air Quality

  Air Quality AQ Index Pollutant
Not available.

Snow Depth

Station Depth Elevation

Earthquake Activity

City Distance Mag. Time & Date
Minimum magnitude displayed is 2.5.

Coastal Water Temperatures

Place Temperature

Stations

Nearby Weather Stations

Station Location Temp. Windchill Dew Point Humidity Wind Precip. Elev Updated Type